sensor_id;sensor_type;location;lat;lon;timestamp;pressure;altitude;pressure_sealevel;temperature;humidity
65756;BME280;52489;47.502;18.940;2023-01-26T00:00:10;98856.50;;;1.08;91.89
65756;BME280;52489;47.502;18.940;2023-01-26T00:01:23;98852.91;;;1.09;91.83
65756;BME280;52489;47.502;18.940;2023-01-26T00:02:26;98846.81;;;1.03;91.79
65756;BME280;52489;47.502;18.940;2023-01-26T00:03:29;98846.47;;;1.18;91.43
65756;BME280;52489;47.502;18.940;2023-01-26T00:04:35;98844.63;;;1.25;90.70
65756;BME280;52489;47.502;18.940;2023-01-26T00:05:38;98840.44;;;1.06;91.64
65756;BME280;52489;47.502;18.940;2023-01-26T00:06:42;98843.22;;;0.86;93.00
65756;BME280;52489;47.502;18.940;2023-01-26T00:07:44;98838.16;;;0.98;92.97
65756;BME280;52489;47.502;18.940;2023-01-26T00:08:52;98841.44;;;1.05;92.27
65756;BME280;52489;47.502;18.940;2023-01-26T00:09:55;98842.31;;;1.17;91.59
65756;BME280;52489;47.502;18.940;2023-01-26T00:11:02;98836.28;;;1.05;91.76
65756;BME280;52489;47.502;18.940;2023-01-26T00:12:06;98841.28;;;1.00;91.78
65756;BME280;52489;47.502;18.940;2023-01-26T00:13:10;98840.41;;;0.87;92.74
65756;BME280;52489;47.502;18.940;2023-01-26T00:14:12;98841.28;;;1.00;92.56
65756;BME280;52489;47.502;18.940;2023-01-26T00:15:16;98839.44;;;1.07;92.23
65756;BME280;52489;47.502;18.940;2023-01-26T00:16:19;98844.59;;;1.07;91.97
65756;BME280;52489;47.502;18.940;2023-01-26T00:17:23;98839.38;;;1.13;91.71
65756;BME280;52489;47.502;18.940;2023-01-26T00:18:30;98837.66;;;1.07;91.58
65756;BME280;52489;47.502;18.940;2023-01-26T00:19:33;98840.41;;;1.31;90.87
65756;BME280;52489;47.502;18.940;2023-01-26T00:20:36;98838.88;;;1.23;90.94
65756;BME280;52489;47.502;18.940;2023-01-26T00:21:40;98834.41;;;1.12;91.28
65756;BME280;52489;47.502;18.940;2023-01-26T00:22:43;98834.56;;;1.17;91.43
65756;BME280;52489;47.502;18.940;2023-01-26T00:23:47;98831.56;;;1.20;91.26
65756;BME280;52489;47.502;18.940;2023-01-26T00:24:50;98824.66;;;0.96;91.85
65756;BME280;52489;47.502;18.940;2023-01-26T00:25:53;98825.47;;;0.71;93.60
65756;BME280;52489;47.502;18.940;2023-01-26T00:26:56;98825.84;;;0.75;93.93
65756;BME280;52489;47.502;18.940;2023-01-26T00:27:59;98833.25;;;0.89;93.47
65756;BME280;52489;47.502;18.940;2023-01-26T00:29:04;98830.19;;;0.99;92.46
65756;BME280;52489;47.502;18.940;2023-01-26T00:30:08;98822.59;;;1.04;92.15
65756;BME280;52489;47.502;18.940;2023-01-26T00:31:14;98827.97;;;1.21;91.37
65756;BME280;52489;47.502;18.940;2023-01-26T00:32:19;98826.41;;;1.20;91.02
65756;BME280;52489;47.502;18.940;2023-01-26T00:33:22;98827.84;;;1.16;90.94
65756;BME280;52489;47.502;18.940;2023-01-26T00:34:25;98829.13;;;1.25;90.43
65756;BME280;52489;47.502;18.940;2023-01-26T00:35:28;98817.38;;;1.29;90.42
65756;BME280;52489;47.502;18.940;2023-01-26T00:36:32;98824.41;;;1.22;90.39
65756;BME280;52489;47.502;18.940;2023-01-26T00:37:35;98816.59;;;1.29;90.53
65756;BME280;52489;47.502;18.940;2023-01-26T00:38:39;98828.34;;;1.25;90.61
65756;BME280;52489;47.502;18.940;2023-01-26T00:39:42;98820.66;;;1.18;90.76
65756;BME280;52489;47.502;18.940;2023-01-26T00:40:45;98827.69;;;1.29;90.60
65756;BME280;52489;47.502;18.940;2023-01-26T00:41:50;98828.13;;;1.26;90.73
65756;BME280;52489;47.502;18.940;2023-01-26T00:43:11;98824.69;;;1.14;91.11
65756;BME280;52489;47.502;18.940;2023-01-26T00:44:14;98823.38;;;1.23;90.79
65756;BME280;52489;47.502;18.940;2023-01-26T00:45:17;98824.84;;;1.19;90.96
65756;BME280;52489;47.502;18.940;2023-01-26T00:46:20;98830.00;;;1.19;91.02
65756;BME280;52489;47.502;18.940;2023-01-26T00:47:24;98831.31;;;1.03;91.62
65756;BME280;52489;47.502;18.940;2023-01-26T00:48:28;98824.66;;;0.96;91.87
65756;BME280;52489;47.502;18.940;2023-01-26T00:49:31;98824.59;;;1.02;91.70
65756;BME280;52489;47.502;18.940;2023-01-26T00:50:34;98822.19;;;0.82;92.22
65756;BME280;52489;47.502;18.940;2023-01-26T00:51:37;98814.50;;;1.01;92.21
65756;BME280;52489;47.502;18.940;2023-01-26T00:52:40;98823.16;;;1.06;91.61
65756;BME280;52489;47.502;18.940;2023-01-26T00:53:43;98824.00;;;1.00;91.92
65756;BME280;52489;47.502;18.940;2023-01-26T00:54:46;98819.22;;;1.04;91.75
65756;BME280;52489;47.502;18.940;2023-01-26T00:55:53;98818.91;;;0.94;92.27
65756;BME280;52489;47.502;18.940;2023-01-26T00:56:57;98815.84;;;1.03;92.16
65756;BME280;52489;47.502;18.940;2023-01-26T00:58:05;98814.25;;;0.84;92.25
65756;BME280;52489;47.502;18.940;2023-01-26T00:59:09;98810.50;;;0.80;92.98
65756;BME280;52489;47.502;18.940;2023-01-26T01:00:13;98809.41;;;0.69;93.66
65756;BME280;52489;47.502;18.940;2023-01-26T01:01:18;98811.97;;;0.51;95.06
65756;BME280;52489;47.502;18.940;2023-01-26T01:02:22;98803.38;;;0.57;95.22
65756;BME280;52489;47.502;18.940;2023-01-26T01:03:25;98806.84;;;0.69;94.53
65756;BME280;52489;47.502;18.940;2023-01-26T01:04:29;98812.34;;;0.73;94.05
65756;BME280;52489;47.502;18.940;2023-01-26T01:05:32;98807.28;;;0.84;93.73
65756;BME280;52489;47.502;18.940;2023-01-26T01:06:36;98806.50;;;0.84;93.47
65756;BME280;52489;47.502;18.940;2023-01-26T01:07:39;98805.31;;;0.86;93.37
65756;BME280;52489;47.502;18.940;2023-01-26T01:08:43;98804.63;;;0.73;93.83
65756;BME280;52489;47.502;18.940;2023-01-26T01:09:46;98807.09;;;0.86;93.62
65756;BME280;52489;47.502;18.940;2023-01-26T01:10:49;98814.53;;;0.94;92.83
65756;BME280;52489;47.502;18.940;2023-01-26T01:11:52;98810.69;;;1.03;92.73
65756;BME280;52489;47.502;18.940;2023-01-26T01:12:55;98807.91;;;1.05;92.36
65756;BME280;52489;47.502;18.940;2023-01-26T01:13:58;98811.09;;;1.00;92.25
65756;BME280;52489;47.502;18.940;2023-01-26T01:15:01;98810.63;;;1.10;92.24
65756;BME280;52489;47.502;18.940;2023-01-26T01:16:09;98808.25;;;1.08;91.84
65756;BME280;52489;47.502;18.940;2023-01-26T01:17:13;98806.34;;;1.04;92.04
65756;BME280;52489;47.502;18.940;2023-01-26T01:18:17;98808.53;;;1.00;92.54
65756;BME280;52489;47.502;18.940;2023-01-26T01:19:21;98805.69;;;1.08;92.19
65756;BME280;52489;47.502;18.940;2023-01-26T01:20:24;98801.69;;;1.12;91.73
65756;BME280;52489;47.502;18.940;2023-01-26T01:21:27;98807.13;;;1.04;91.80
65756;BME280;52489;47.502;18.940;2023-01-26T01:22:30;98798.97;;;0.82;92.36
65756;BME280;52489;47.502;18.940;2023-01-26T01:23:34;98800.19;;;0.80;92.78
65756;BME280;52489;47.502;18.940;2023-01-26T01:24:41;98796.25;;;0.77;93.02
65756;BME280;52489;47.502;18.940;2023-01-26T01:25:43;98799.88;;;0.70;93.88
65756;BME280;52489;47.502;18.940;2023-01-26T01:26:47;98801.44;;;0.96;93.30
65756;BME280;52489;47.502;18.940;2023-01-26T01:27:50;98795.94;;;1.10;92.46
65756;BME280;52489;47.502;18.940;2023-01-26T01:28:55;98798.66;;;1.16;91.98
65756;BME280;52489;47.502;18.940;2023-01-26T01:29:59;98794.13;;;1.11;92.05
65756;BME280;52489;47.502;18.940;2023-01-26T01:31:10;98794.28;;;1.16;92.10
65756;BME280;52489;47.502;18.940;2023-01-26T01:32:14;98788.91;;;1.18;91.96
65756;BME280;52489;47.502;18.940;2023-01-26T01:33:17;98791.63;;;1.23;91.69
65756;BME280;52489;47.502;18.940;2023-01-26T01:34:20;98790.41;;;1.25;91.49
65756;BME280;52489;47.502;18.940;2023-01-26T01:35:23;98795.78;;;1.24;91.49
65756;BME280;52489;47.502;18.940;2023-01-26T01:36:26;98793.94;;;1.31;90.83
65756;BME280;52489;47.502;18.940;2023-01-26T01:37:30;98794.00;;;1.24;90.85
65756;BME280;52489;47.502;18.940;2023-01-26T01:38:35;98792.16;;;1.13;91.60
65756;BME280;52489;47.502;18.940;2023-01-26T01:39:38;98795.03;;;0.80;93.63
65756;BME280;52489;47.502;18.940;2023-01-26T01:40:42;98788.66;;;0.82;93.93
65756;BME280;52489;47.502;18.940;2023-01-26T01:41:45;98788.31;;;0.97;93.37
65756;BME280;52489;47.502;18.940;2023-01-26T01:42:48;98778.84;;;1.09;92.66
65756;BME280;52489;47.502;18.940;2023-01-26T01:44:23;98785.97;;;0.96;92.79
65756;BME280;52489;47.502;18.940;2023-01-26T01:45:37;98785.59;;;0.92;93.59
65756;BME280;52489;47.502;18.940;2023-01-26T01:46:45;98786.91;;;1.01;93.33
65756;BME280;52489;47.502;18.940;2023-01-26T01:47:49;98788.75;;;0.94;93.53
65756;BME280;52489;47.502;18.940;2023-01-26T01:48:58;98779.78;;;0.97;93.68
65756;BME280;52489;47.502;18.940;2023-01-26T01:50:04;98776.50;;;1.08;93.27
65756;BME280;52489;47.502;18.940;2023-01-26T01:51:18;98786.91;;;1.20;92.91
65756;BME280;52489;47.502;18.940;2023-01-26T01:52:28;98777.94;;;1.22;92.63
65756;BME280;52489;47.502;18.940;2023-01-26T01:53:36;98786.31;;;1.18;92.69
65756;BME280;52489;47.502;18.940;2023-01-26T01:55:45;98779.88;;;1.27;92.57
65756;BME280;52489;47.502;18.940;2023-01-26T01:56:54;98775.16;;;1.05;92.98
65756;BME280;52489;47.502;18.940;2023-01-26T01:58:00;98775.94;;;1.06;93.86
65756;BME280;52489;47.502;18.940;2023-01-26T01:59:06;98775.00;;;1.00;93.64
65756;BME280;52489;47.502;18.940;2023-01-26T02:00:18;98777.44;;;1.13;93.36
65756;BME280;52489;47.502;18.940;2023-01-26T02:01:23;98772.06;;;1.15;93.30
65756;BME280;52489;47.502;18.940;2023-01-26T02:02:26;98773.78;;;1.21;92.87
65756;BME280;52489;47.502;18.940;2023-01-26T02:03:29;98767.97;;;1.07;93.71
65756;BME280;52489;47.502;18.940;2023-01-26T02:04:34;98765.47;;;1.19;93.46
65756;BME280;52489;47.502;18.940;2023-01-26T02:05:54;98770.12;;;1.10;92.91
65756;BME280;52489;47.502;18.940;2023-01-26T02:06:58;98766.47;;;1.18;93.02
65756;BME280;52489;47.502;18.940;2023-01-26T02:08:03;98766.31;;;1.31;92.00
65756;BME280;52489;47.502;18.940;2023-01-26T02:09:07;98762.91;;;1.19;92.25
65756;BME280;52489;47.502;18.940;2023-01-26T02:10:32;98758.44;;;1.08;92.73
65756;BME280;52489;47.502;18.940;2023-01-26T02:11:39;98753.00;;;1.16;92.43
65756;BME280;52489;47.502;18.940;2023-01-26T02:12:44;98753.72;;;1.23;92.30
65756;BME280;52489;47.502;18.940;2023-01-26T02:13:49;98757.66;;;1.26;91.63
65756;BME280;52489;47.502;18.940;2023-01-26T02:14:53;98755.16;;;1.19;91.87
65756;BME280;52489;47.502;18.940;2023-01-26T02:15:59;98751.22;;;1.17;91.95
65756;BME280;52489;47.502;18.940;2023-01-26T02:17:03;98745.63;;;1.20;91.87
65756;BME280;52489;47.502;18.940;2023-01-26T02:18:06;98746.31;;;1.27;91.59
65756;BME280;52489;47.502;18.940;2023-01-26T02:19:21;98746.81;;;1.35;91.06
65756;BME280;52489;47.502;18.940;2023-01-26T02:20:53;98748.16;;;1.38;91.03
65756;BME280;52489;47.502;18.940;2023-01-26T02:22:05;98744.09;;;1.30;91.03
65756;BME280;52489;47.502;18.940;2023-01-26T02:23:21;98748.19;;;1.20;91.58
65756;BME280;52489;47.502;18.940;2023-01-26T02:24:28;98750.59;;;1.33;91.64
65756;BME280;52489;47.502;18.940;2023-01-26T02:26:54;98748.12;;;1.26;91.79
65756;BME280;52489;47.502;18.940;2023-01-26T02:27:58;98743.91;;;1.13;91.79
65756;BME280;52489;47.502;18.940;2023-01-26T02:29:07;98739.31;;;1.16;92.31
65756;BME280;52489;47.502;18.940;2023-01-26T02:30:11;98734.72;;;1.18;92.00
65756;BME280;52489;47.502;18.940;2023-01-26T02:31:16;98732.62;;;1.26;91.60
65756;BME280;52489;47.502;18.940;2023-01-26T02:32:20;98736.22;;;1.25;91.52
65756;BME280;52489;47.502;18.940;2023-01-26T02:33:25;98735.44;;;1.25;91.39
65756;BME280;52489;47.502;18.940;2023-01-26T02:34:29;98729.56;;;1.18;91.54
65756;BME280;52489;47.502;18.940;2023-01-26T02:35:32;98730.81;;;1.27;91.10
65756;BME280;52489;47.502;18.940;2023-01-26T02:36:35;98728.97;;;1.34;90.86
65756;BME280;52489;47.502;18.940;2023-01-26T02:37:38;98723.09;;;1.27;91.13
65756;BME280;52489;47.502;18.940;2023-01-26T02:39:15;98718.84;;;1.32;90.96
65756;BME280;52489;47.502;18.940;2023-01-26T02:40:35;98721.94;;;1.23;91.09
65756;BME280;52489;47.502;18.940;2023-01-26T02:41:40;98720.59;;;1.02;91.81
65756;BME280;52489;47.502;18.940;2023-01-26T02:43:10;98716.47;;;1.01;91.97
65756;BME280;52489;47.502;18.940;2023-01-26T02:44:13;98717.88;;;1.15;91.39
65756;BME280;52489;47.502;18.940;2023-01-26T02:45:17;98724.19;;;1.19;91.33
65756;BME280;52489;47.502;18.940;2023-01-26T02:46:20;98711.88;;;1.33;90.38
65756;BME280;52489;47.502;18.940;2023-01-26T02:47:26;98713.78;;;1.26;90.58
65756;BME280;52489;47.502;18.940;2023-01-26T02:48:33;98714.00;;;1.06;91.41
65756;BME280;52489;47.502;18.940;2023-01-26T02:49:54;98714.28;;;1.16;91.42
65756;BME280;52489;47.502;18.940;2023-01-26T02:51:01;98697.81;;;0.99;91.74
65756;BME280;52489;47.502;18.940;2023-01-26T02:52:04;98700.84;;;0.96;91.75
65756;BME280;52489;47.502;18.940;2023-01-26T02:53:07;98704.72;;;0.86;92.83
65756;BME280;52489;47.502;18.940;2023-01-26T02:54:10;98698.41;;;1.01;92.43
65756;BME280;52489;47.502;18.940;2023-01-26T02:55:33;98702.38;;;1.15;91.37
65756;BME280;52489;47.502;18.940;2023-01-26T02:56:36;98697.44;;;1.13;91.37
65756;BME280;52489;47.502;18.940;2023-01-26T02:57:42;98701.09;;;1.06;91.11
65756;BME280;52489;47.502;18.940;2023-01-26T02:58:46;98705.50;;;0.87;92.25
65756;BME280;52489;47.502;18.940;2023-01-26T02:59:49;98696.97;;;0.86;92.83
65756;BME280;52489;47.502;18.940;2023-01-26T03:00:52;98693.81;;;0.84;91.99
65756;BME280;52489;47.502;18.940;2023-01-26T03:01:56;98689.16;;;0.93;91.99
65756;BME280;52489;47.502;18.940;2023-01-26T03:03:00;98689.66;;;1.02;91.77
65756;BME280;52489;47.502;18.940;2023-01-26T03:04:04;98692.94;;;0.90;91.87
65756;BME280;52489;47.502;18.940;2023-01-26T03:05:07;98688.88;;;1.01;91.75
65756;BME280;52489;47.502;18.940;2023-01-26T03:06:11;98689.87;;;0.82;92.40
65756;BME280;52489;47.502;18.940;2023-01-26T03:07:14;98685.81;;;0.74;92.58
65756;BME280;52489;47.502;18.940;2023-01-26T03:08:19;98686.34;;;0.95;92.19
65756;BME280;52489;47.502;18.940;2023-01-26T03:09:22;98688.19;;;1.06;91.60
65756;BME280;52489;47.502;18.940;2023-01-26T03:10:25;98689.63;;;1.20;91.19
65756;BME280;52489;47.502;18.940;2023-01-26T03:11:28;98684.97;;;1.10;91.20
65756;BME280;52489;47.502;18.940;2023-01-26T03:12:44;98683.28;;;1.04;91.59
65756;BME280;52489;47.502;18.940;2023-01-26T03:13:47;98679.91;;;0.85;91.39
65756;BME280;52489;47.502;18.940;2023-01-26T03:14:50;98683.13;;;0.99;91.60
65756;BME280;52489;47.502;18.940;2023-01-26T03:16:12;98677.13;;;0.87;91.82
65756;BME280;52489;47.502;18.940;2023-01-26T03:17:20;98675.97;;;0.64;92.85
65756;BME280;52489;47.502;18.940;2023-01-26T03:18:25;98676.31;;;0.68;93.56
65756;BME280;52489;47.502;18.940;2023-01-26T03:19:46;98674.75;;;0.67;93.28
65756;BME280;52489;47.502;18.940;2023-01-26T03:21:22;98672.25;;;0.79;92.99
65756;BME280;52489;47.502;18.940;2023-01-26T03:22:44;98674.69;;;0.92;92.08
65756;BME280;52489;47.502;18.940;2023-01-26T03:24:11;98676.19;;;0.81;92.76
65756;BME280;52489;47.502;18.940;2023-01-26T03:25:33;98673.53;;;0.70;92.76
65756;BME280;52489;47.502;18.940;2023-01-26T03:26:56;98672.31;;;0.54;93.76
65756;BME280;52489;47.502;18.940;2023-01-26T03:28:20;98671.66;;;0.58;93.26
65756;BME280;52489;47.502;18.940;2023-01-26T03:29:28;98671.16;;;0.68;93.10
65756;BME280;52489;47.502;18.940;2023-01-26T03:30:31;98669.81;;;0.65;93.19
65756;BME280;52489;47.502;18.940;2023-01-26T03:31:34;98664.50;;;0.60;93.28
65756;BME280;52489;47.502;18.940;2023-01-26T03:32:37;98664.16;;;0.75;92.84
65756;BME280;52489;47.502;18.940;2023-01-26T03:33:44;98659.28;;;0.67;93.00
65756;BME280;52489;47.502;18.940;2023-01-26T03:34:46;98660.84;;;0.50;93.76
65756;BME280;52489;47.502;18.940;2023-01-26T03:35:52;98665.28;;;0.42;94.16
65756;BME280;52489;47.502;18.940;2023-01-26T03:36:56;98672.09;;;0.55;93.82
65756;BME280;52489;47.502;18.940;2023-01-26T03:38:00;98660.22;;;0.73;92.55
65756;BME280;52489;47.502;18.940;2023-01-26T03:39:03;98658.34;;;0.80;92.37
65756;BME280;52489;47.502;18.940;2023-01-26T03:40:08;98659.44;;;0.72;92.92
65756;BME280;52489;47.502;18.940;2023-01-26T03:41:29;98663.41;;;0.68;93.62
65756;BME280;52489;47.502;18.940;2023-01-26T03:42:50;98657.56;;;0.79;92.85
65756;BME280;52489;47.502;18.940;2023-01-26T03:44:13;98655.50;;;0.70;93.54
65756;BME280;52489;47.502;18.940;2023-01-26T03:45:35;98650.97;;;0.65;92.38
65756;BME280;52489;47.502;18.940;2023-01-26T03:46:56;98652.81;;;0.76;91.08
65756;BME280;52489;47.502;18.940;2023-01-26T03:48:18;98649.56;;;0.69;90.65
65756;BME280;52489;47.502;18.940;2023-01-26T03:49:40;98654.44;;;0.77;90.84
65756;BME280;52489;47.502;18.940;2023-01-26T03:51:02;98642.38;;;0.89;91.02
65756;BME280;52489;47.502;18.940;2023-01-26T03:52:24;98647.81;;;0.81;90.67
65756;BME280;52489;47.502;18.940;2023-01-26T03:53:45;98647.47;;;0.59;91.81
65756;BME280;52489;47.502;18.940;2023-01-26T03:55:07;98647.91;;;0.56;92.72
65756;BME280;52489;47.502;18.940;2023-01-26T03:56:29;98644.37;;;0.69;92.00
65756;BME280;52489;47.502;18.940;2023-01-26T03:57:35;98641.34;;;0.90;91.22
65756;BME280;52489;47.502;18.940;2023-01-26T03:58:39;98645.31;;;0.93;91.30
65756;BME280;52489;47.502;18.940;2023-01-26T03:59:42;98636.00;;;0.74;91.50
65756;BME280;52489;47.502;18.940;2023-01-26T04:00:48;98635.75;;;0.94;91.13
65756;BME280;52489;47.502;18.940;2023-01-26T04:01:51;98644.09;;;0.96;90.60
65756;BME280;52489;47.502;18.940;2023-01-26T04:03:12;98642.56;;;0.88;90.48
65756;BME280;52489;47.502;18.940;2023-01-26T04:04:34;98636.97;;;0.91;90.50
65756;BME280;52489;47.502;18.940;2023-01-26T04:05:57;98632.06;;;0.89;90.27
65756;BME280;52489;47.502;18.940;2023-01-26T04:07:19;98632.59;;;0.91;90.29
65756;BME280;52489;47.502;18.940;2023-01-26T04:08:41;98636.28;;;0.84;90.28
65756;BME280;52489;47.502;18.940;2023-01-26T04:09:44;98638.22;;;0.70;91.40
65756;BME280;52489;47.502;18.940;2023-01-26T04:10:51;98633.72;;;0.84;91.33
65756;BME280;52489;47.502;18.940;2023-01-26T04:11:54;98632.56;;;0.61;92.41
65756;BME280;52489;47.502;18.940;2023-01-26T04:12:57;98637.63;;;0.68;92.49
65756;BME280;52489;47.502;18.940;2023-01-26T04:14:19;98632.50;;;0.50;93.44
65756;BME280;52489;47.502;18.940;2023-01-26T04:15:51;98628.28;;;0.55;93.72
65756;BME280;52489;47.502;18.940;2023-01-26T04:17:13;98630.78;;;0.80;92.17
65756;BME280;52489;47.502;18.940;2023-01-26T04:18:38;98626.84;;;0.78;91.49
65756;BME280;52489;47.502;18.940;2023-01-26T04:20:00;98627.63;;;0.78;90.91
65756;BME280;52489;47.502;18.940;2023-01-26T04:21:21;98626.91;;;0.89;90.43
65756;BME280;52489;47.502;18.940;2023-01-26T04:22:36;98623.16;;;0.85;90.53
65756;BME280;52489;47.502;18.940;2023-01-26T04:23:41;98624.69;;;0.75;90.83
65756;BME280;52489;47.502;18.940;2023-01-26T04:24:44;98624.31;;;0.89;90.12
65756;BME280;52489;47.502;18.940;2023-01-26T04:25:48;98621.41;;;0.86;89.99
65756;BME280;52489;47.502;18.940;2023-01-26T04:26:50;98619.78;;;0.85;89.84
65756;BME280;52489;47.502;18.940;2023-01-26T04:27:54;98621.31;;;0.93;89.88
65756;BME280;52489;47.502;18.940;2023-01-26T04:28:57;98623.88;;;0.93;89.64
65756;BME280;52489;47.502;18.940;2023-01-26T04:30:02;98618.66;;;0.81;89.97
65756;BME280;52489;47.502;18.940;2023-01-26T04:31:07;98621.75;;;0.89;90.04
65756;BME280;52489;47.502;18.940;2023-01-26T04:32:10;98620.97;;;0.89;90.21
65756;BME280;52489;47.502;18.940;2023-01-26T04:33:13;98618.44;;;0.82;90.34
65756;BME280;52489;47.502;18.940;2023-01-26T04:34:16;98616.97;;;0.75;91.19
65756;BME280;52489;47.502;18.940;2023-01-26T04:35:19;98616.00;;;0.87;90.69
65756;BME280;52489;47.502;18.940;2023-01-26T04:36:22;98620.81;;;0.84;90.67
65756;BME280;52489;47.502;18.940;2023-01-26T04:37:25;98609.72;;;0.83;90.96
65756;BME280;52489;47.502;18.940;2023-01-26T04:38:30;98619.16;;;0.89;90.35
65756;BME280;52489;47.502;18.940;2023-01-26T04:39:33;98613.72;;;0.79;90.64
65756;BME280;52489;47.502;18.940;2023-01-26T04:40:36;98613.59;;;0.74;91.21
65756;BME280;52489;47.502;18.940;2023-01-26T04:41:39;98605.47;;;0.71;91.54
65756;BME280;52489;47.502;18.940;2023-01-26T04:42:46;98617.88;;;0.80;91.53
65756;BME280;52489;47.502;18.940;2023-01-26T04:43:49;98610.50;;;0.84;91.03
65756;BME280;52489;47.502;18.940;2023-01-26T04:44:52;98614.37;;;0.75;91.15
65756;BME280;52489;47.502;18.940;2023-01-26T04:46:00;98617.81;;;0.68;91.87
65756;BME280;52489;47.502;18.940;2023-01-26T04:47:04;98609.00;;;0.76;91.73
65756;BME280;52489;47.502;18.940;2023-01-26T04:48:07;98602.41;;;0.80;91.50
65756;BME280;52489;47.502;18.940;2023-01-26T04:49:12;98606.47;;;0.88;91.36
65756;BME280;52489;47.502;18.940;2023-01-26T04:50:15;98607.03;;;0.90;91.17
65756;BME280;52489;47.502;18.940;2023-01-26T04:51:19;98609.34;;;0.98;90.66
65756;BME280;52489;47.502;18.940;2023-01-26T04:52:23;98607.03;;;0.90;90.76
65756;BME280;52489;47.502;18.940;2023-01-26T04:53:26;98612.91;;;0.97;90.67
65756;BME280;52489;47.502;18.940;2023-01-26T04:54:29;98603.25;;;0.93;90.49
65756;BME280;52489;47.502;18.940;2023-01-26T04:55:32;98607.03;;;0.90;90.63
65756;BME280;52489;47.502;18.940;2023-01-26T04:56:35;98610.56;;;0.96;90.70
65756;BME280;52489;47.502;18.940;2023-01-26T04:57:38;98607.34;;;0.82;90.89
65756;BME280;52489;47.502;18.940;2023-01-26T04:58:44;98603.41;;;0.79;91.45
65756;BME280;52489;47.502;18.940;2023-01-26T04:59:47;98606.69;;;0.86;91.21
65756;BME280;52489;47.502;18.940;2023-01-26T05:00:54;98605.38;;;0.96;90.77
65756;BME280;52489;47.502;18.940;2023-01-26T05:01:57;98603.09;;;0.87;91.24
65756;BME280;52489;47.502;18.940;2023-01-26T05:03:00;98599.25;;;0.78;91.35
65756;BME280;52489;47.502;18.940;2023-01-26T05:04:04;98603.28;;;0.74;91.31
65756;BME280;52489;47.502;18.940;2023-01-26T05:05:08;98605.78;;;0.81;91.41
65756;BME280;52489;47.502;18.940;2023-01-26T05:06:11;98605.00;;;0.80;91.09
65756;BME280;52489;47.502;18.940;2023-01-26T05:07:14;98611.56;;;0.76;91.49
65756;BME280;52489;47.502;18.940;2023-01-26T05:08:20;98603.19;;;0.81;91.41
65756;BME280;52489;47.502;18.940;2023-01-26T05:09:23;98603.78;;;0.83;91.16
65756;BME280;52489;47.502;18.940;2023-01-26T05:10:31;98603.53;;;0.84;91.42
65756;BME280;52489;47.502;18.940;2023-01-26T05:11:34;98609.09;;;1.00;90.53
65756;BME280;52489;47.502;18.940;2023-01-26T05:12:37;98606.37;;;0.95;90.45
65756;BME280;52489;47.502;18.940;2023-01-26T05:13:44;98605.34;;;0.84;90.59
65756;BME280;52489;47.502;18.940;2023-01-26T05:14:48;98601.88;;;0.90;90.80
65756;BME280;52489;47.502;18.940;2023-01-26T05:15:51;98607.91;;;0.84;90.56
65756;BME280;52489;47.502;18.940;2023-01-26T05:16:55;98597.87;;;0.76;90.82
65756;BME280;52489;47.502;18.940;2023-01-26T05:17:58;98607.56;;;0.80;90.66
65756;BME280;52489;47.502;18.940;2023-01-26T05:19:04;98597.19;;;0.68;90.98
65756;BME280;52489;47.502;18.940;2023-01-26T05:20:08;98601.13;;;0.71;91.36
65756;BME280;52489;47.502;18.940;2023-01-26T05:21:14;98605.06;;;0.74;91.25
65756;BME280;52489;47.502;18.940;2023-01-26T05:22:17;98602.41;;;0.62;91.43
65756;BME280;52489;47.502;18.940;2023-01-26T05:23:19;98606.22;;;0.59;91.92
65756;BME280;52489;47.502;18.940;2023-01-26T05:24:22;98604.13;;;0.68;91.69
65756;BME280;52489;47.502;18.940;2023-01-26T05:25:25;98613.53;;;0.62;91.75
65756;BME280;52489;47.502;18.940;2023-01-26T05:26:29;98604.63;;;0.58;91.90
65756;BME280;52489;47.502;18.940;2023-01-26T05:27:32;98598.25;;;0.61;91.78
65756;BME280;52489;47.502;18.940;2023-01-26T05:28:35;98601.00;;;0.66;91.71
65756;BME280;52489;47.502;18.940;2023-01-26T05:29:38;98593.03;;;0.67;91.52
65756;BME280;52489;47.502;18.940;2023-01-26T05:30:41;98598.84;;;0.63;91.49
65756;BME280;52489;47.502;18.940;2023-01-26T05:31:44;98599.72;;;0.57;91.90
65756;BME280;52489;47.502;18.940;2023-01-26T05:32:47;98602.34;;;0.68;91.72
65756;BME280;52489;47.502;18.940;2023-01-26T05:33:50;98601.69;;;0.73;91.40
65756;BME280;52489;47.502;18.940;2023-01-26T05:34:53;98601.53;;;0.86;90.50
65756;BME280;52489;47.502;18.940;2023-01-26T05:35:56;98607.34;;;0.82;89.93
65756;BME280;52489;47.502;18.940;2023-01-26T05:37:00;98597.87;;;0.76;90.17
65756;BME280;52489;47.502;18.940;2023-01-26T05:38:03;98599.09;;;0.73;90.27
65756;BME280;52489;47.502;18.940;2023-01-26T05:39:07;98598.75;;;0.70;90.42
65756;BME280;52489;47.502;18.940;2023-01-26T05:40:10;98597.75;;;0.71;90.24
65756;BME280;52489;47.502;18.940;2023-01-26T05:41:15;98603.12;;;0.69;90.27
65756;BME280;52489;47.502;18.940;2023-01-26T05:42:18;98604.13;;;0.68;90.04
65756;BME280;52489;47.502;18.940;2023-01-26T05:43:22;98607.38;;;0.63;90.40
65756;BME280;52489;47.502;18.940;2023-01-26T05:44:24;98606.78;;;0.61;90.78
65756;BME280;52489;47.502;18.940;2023-01-26T05:45:27;98615.72;;;0.59;90.90
65756;BME280;52489;47.502;18.940;2023-01-26T05:46:31;98613.22;;;0.71;90.78
65756;BME280;52489;47.502;18.940;2023-01-26T05:47:35;98611.84;;;0.68;90.81
65756;BME280;52489;47.502;18.940;2023-01-26T05:48:39;98612.28;;;0.65;90.93
65756;BME280;52489;47.502;18.940;2023-01-26T05:49:46;98609.06;;;0.70;90.72
65756;BME280;52489;47.502;18.940;2023-01-26T05:50:48;98614.94;;;0.58;91.33
65756;BME280;52489;47.502;18.940;2023-01-26T05:51:51;98610.88;;;0.51;91.81
65756;BME280;52489;47.502;18.940;2023-01-26T05:52:54;98612.88;;;0.49;92.17
65756;BME280;52489;47.502;18.940;2023-01-26T05:53:58;98614.59;;;0.55;91.98
65756;BME280;52489;47.502;18.940;2023-01-26T05:55:02;98621.28;;;0.62;92.09
65756;BME280;52489;47.502;18.940;2023-01-26T05:56:06;98614.09;;;0.64;91.57